createdAt,value
2022-09-12T00:01:54.548Z,101390.28
2022-09-12T00:04:21.435Z,101392.97
2022-09-12T00:06:48.143Z,101391.59
2022-09-12T00:09:15.153Z,101395.78
2022-09-12T00:11:44.706Z,101393.59
2022-09-12T00:14:15.620Z,101382.88
2022-09-12T00:16:42.974Z,101391.56
2022-09-12T00:19:10.204Z,101399.25
2022-09-12T00:21:38.741Z,101396.59
2022-09-12T00:24:05.870Z,101386.19
2022-09-12T00:26:33.029Z,101376.78
2022-09-12T00:28:59.910Z,101379.44
2022-09-12T00:31:27.322Z,101387.81
2022-09-12T00:33:58.242Z,101380.78
2022-09-12T00:36:26.169Z,101371.41
2022-09-12T00:38:54.683Z,101371.41
2022-09-12T00:41:24.684Z,101376.25
2022-09-12T00:43:54.125Z,101376.09
2022-09-12T00:46:29.658Z,101365.91
2022-09-12T00:49:05.023Z,101367.06
2022-09-12T00:51:34.310Z,101356.19
2022-09-12T00:54:06.102Z,101360.53
2022-09-12T00:56:33.106Z,101359.53
2022-09-12T00:59:14.855Z,101355.00
2022-09-12T01:01:43.585Z,101360.16
2022-09-12T01:04:12.989Z,101355.94
2022-09-12T01:06:43.367Z,101362.94
2022-09-12T01:09:14.585Z,101347.19
2022-09-12T01:11:42.656Z,101356.22
2022-09-12T01:14:09.466Z,101358.69
2022-09-12T01:16:37.501Z,101359.03
2022-09-12T01:19:18.735Z,101357.50
2022-09-12T01:22:20.459Z,101373.19
2022-09-12T01:25:21.680Z,101363.44
2022-09-12T01:28:10.048Z,101367.44
2022-09-12T01:30:56.163Z,101361.09
2022-09-12T01:33:38.180Z,101363.06
2022-09-12T01:36:29.012Z,101356.72
2022-09-12T01:39:14.129Z,101353.38
2022-09-12T01:41:50.302Z,101351.50
2022-09-12T01:44:45.278Z,101353.63
2022-09-12T01:47:19.514Z,101354.47
2022-09-12T01:49:48.787Z,101354.78
2022-09-12T01:52:22.773Z,101345.78
2022-09-12T01:55:09.864Z,101328.19
2022-09-12T01:58:08.649Z,101331.69
2022-09-12T02:00:43.989Z,101331.84
2022-09-12T02:03:45.144Z,101332.69
2022-09-12T02:06:41.911Z,101329.03
2022-09-12T02:09:24.472Z,101325.53
2022-09-12T02:11:55.493Z,101322.00
2022-09-12T02:14:26.704Z,101320.34
2022-09-12T02:16:58.921Z,101317.34
2022-09-12T02:19:34.349Z,101310.50
2022-09-12T02:22:03.638Z,101314.16
2022-09-12T02:24:43.797Z,101317.34
2022-09-12T02:27:19.801Z,101327.19
2022-09-12T02:29:47.342Z,101320.69
2022-09-12T02:32:46.747Z,101324.38
2022-09-12T02:35:38.108Z,101326.19
2022-09-12T02:38:13.267Z,101319.66
2022-09-12T02:40:40.903Z,101314.78
2022-09-12T02:43:07.906Z,101312.41
2022-09-12T02:45:36.379Z,101312.41
2022-09-12T02:48:34.631Z,101314.09
2022-09-12T02:51:02.565Z,101308.75
2022-09-12T02:53:29.638Z,101308.28
2022-09-12T02:55:56.463Z,101298.28
2022-09-12T02:58:27.189Z,101300.28
2022-09-12T03:01:02.884Z,101298.44
2022-09-12T03:03:52.355Z,101297.63
2022-09-12T03:06:41.857Z,101288.38
2022-09-12T03:09:25.534Z,101293.44
2022-09-12T03:12:21.568Z,101294.72
2022-09-12T03:15:08.084Z,101293.19
2022-09-12T03:17:38.248Z,101290.53
2022-09-12T03:20:16.981Z,101294.34
2022-09-12T03:23:02.309Z,101289.84
2022-09-12T03:25:34.857Z,101291.00
2022-09-12T03:28:15.637Z,101287.66
2022-09-12T03:30:45.458Z,101277.56
2022-09-12T03:33:18.306Z,101297.81
2022-09-12T03:35:46.701Z,101290.25
2022-09-12T03:38:13.628Z,101296.97
2022-09-12T03:40:40.685Z,101290.25
2022-09-12T03:43:08.862Z,101285.19
2022-09-12T03:45:36.990Z,101288.03
2022-09-12T03:48:06.544Z,101284.97
2022-09-12T03:50:33.930Z,101290.84
2022-09-12T03:53:00.716Z,101293.84
2022-09-12T03:55:27.623Z,101297.50
2022-09-12T03:57:55.099Z,101293.16
2022-09-12T04:00:22.036Z,101288.13
2022-09-12T04:02:48.735Z,101281.13
2022-09-12T04:05:15.448Z,101278.09
2022-09-12T04:07:42.022Z,101278.09
2022-09-12T04:10:09.762Z,101280.91
2022-09-12T04:12:36.512Z,101273.91
2022-09-12T04:15:03.329Z,101278.91
2022-09-12T04:17:30.027Z,101288.06
2022-09-12T04:19:56.621Z,101287.41
2022-09-12T04:22:23.515Z,101291.59
2022-09-12T04:24:50.645Z,101282.19
2022-09-12T04:27:17.382Z,101278.47
2022-09-12T04:29:44.030Z,101278.69
2022-09-12T04:32:10.861Z,101288.34
2022-09-12T04:34:37.671Z,101276.31
2022-09-12T04:37:04.701Z,101274.81
2022-09-12T04:39:31.442Z,101279.09
2022-09-12T04:41:58.195Z,101281.13
2022-09-12T04:44:24.842Z,101279.63
2022-09-12T04:46:52.823Z,101273.44
2022-09-12T04:49:19.571Z,101283.28
2022-09-12T04:51:46.882Z,101275.59
2022-09-12T04:54:19.493Z,101282.44
2022-09-12T04:56:49.038Z,101281.59
2022-09-12T04:59:17.645Z,101276.59
2022-09-12T05:01:44.916Z,101283.28
2022-09-12T05:04:13.240Z,101279.94
2022-09-12T05:06:41.466Z,101275.59
2022-09-12T05:09:14.184Z,101261.47
2022-09-12T05:14:31.127Z,101264.22
2022-09-12T05:17:00.799Z,101263.84
2022-09-12T05:19:28.586Z,101259.22
2022-09-12T05:21:55.252Z,101263.09
2022-09-12T05:24:22.372Z,101268.41
2022-09-12T05:26:49.069Z,101267.09
2022-09-12T05:29:15.798Z,101264.75
2022-09-12T05:31:42.613Z,101267.09
2022-09-12T05:34:10.328Z,101262.28
2022-09-12T05:36:38.745Z,101269.63
2022-09-12T05:39:05.811Z,101266.13
2022-09-12T05:41:34.008Z,101269.78
2022-09-12T05:44:03.626Z,101263.59
2022-09-12T05:46:42.905Z,101268.00
2022-09-12T05:49:12.187Z,101271.38
2022-09-12T05:51:42.129Z,101271.75
2022-09-12T05:54:12.282Z,101267.94
2022-09-12T05:56:44.123Z,101280.47
2022-09-12T05:59:15.500Z,101278.03
2022-09-12T06:01:42.816Z,101280.41
2022-09-12T06:04:09.672Z,101273.22
2022-09-12T06:06:42.128Z,101275.66
2022-09-12T06:09:09.464Z,101282.88
2022-09-12T06:11:38.026Z,101279.75
2022-09-12T06:14:05.192Z,101286.28
2022-09-12T06:16:34.316Z,101279.44
2022-09-12T06:19:07.176Z,101273.44
2022-09-12T06:21:35.454Z,101281.88
2022-09-12T06:24:02.611Z,101267.19
2022-09-12T06:26:30.131Z,101261.69
2022-09-12T06:28:59.865Z,101274.59
2022-09-12T06:31:33.313Z,101270.31
2022-09-12T06:34:02.471Z,101260.63
2022-09-12T06:36:31.766Z,101256.44
2022-09-12T06:39:04.290Z,101254.00
2022-09-12T06:41:31.597Z,101249.31
2022-09-12T06:43:59.464Z,101248.19
2022-09-12T06:46:26.794Z,101253.56
2022-09-12T06:48:55.719Z,101266.47
2022-09-12T06:51:22.766Z,101265.78
2022-09-12T06:53:50.242Z,101253.75
2022-09-12T06:56:19.326Z,101255.94
2022-09-12T06:58:47.998Z,101258.44
2022-09-12T07:01:17.249Z,101264.47
2022-09-12T07:03:48.925Z,101263.09
2022-09-12T07:06:17.537Z,101262.94
2022-09-12T07:08:44.810Z,101259.03
2022-09-12T07:11:25.183Z,101248.81
2022-09-12T07:13:56.209Z,101258.00
2022-09-12T07:16:23.907Z,101250.59
2022-09-12T07:18:52.779Z,101244.41
2022-09-12T07:21:19.703Z,101234.81
2022-09-12T07:23:46.951Z,101229.41
2022-09-12T07:26:15.536Z,101230.22
2022-09-12T07:28:42.810Z,101236.19
2022-09-12T07:31:15.243Z,101235.81
2022-09-12T07:33:43.088Z,101231.28
2022-09-12T07:36:16.266Z,101227.88
2022-09-12T07:38:44.115Z,101230.19
2022-09-12T07:41:15.575Z,101220.84
2022-09-12T07:43:42.340Z,101232.47
2022-09-12T07:46:10.011Z,101228.72
2022-09-12T07:48:38.136Z,101230.97
2022-09-12T07:51:10.122Z,101230.91
2022-09-12T07:53:41.491Z,101229.66
2022-09-12T07:56:12.924Z,101223.06
2022-09-12T07:58:41.107Z,101233.81
2022-09-12T08:01:19.121Z,101227.53
2022-09-12T08:03:48.838Z,101217.44
2022-09-12T08:06:20.666Z,101221.63
2022-09-12T08:08:48.892Z,101223.66
2022-09-12T08:11:18.207Z,101214.84
2022-09-12T08:13:45.959Z,101219.56
2022-09-12T08:16:21.129Z,101215.41
2022-09-12T08:18:48.948Z,101215.97
2022-09-12T08:21:22.522Z,101208.41
2022-09-12T08:23:56.400Z,101207.28
2022-09-12T08:26:23.632Z,101213.63
2022-09-12T08:28:50.831Z,101207.34
2022-09-12T08:31:20.358Z,101211.22
2022-09-12T08:33:47.714Z,101206.69
2022-09-12T08:36:21.432Z,101205.91
2022-09-12T08:38:50.295Z,101203.53
2022-09-12T08:41:39.870Z,101211.28
2022-09-12T08:44:44.396Z,101206.22
2022-09-12T08:47:29.033Z,101201.19
2022-09-12T08:49:55.721Z,101204.34
2022-09-12T08:52:41.116Z,101199.47
2022-09-12T08:55:37.540Z,101201.88
2022-09-12T08:58:23.122Z,101199.66
2022-09-12T09:00:59.607Z,101193.13
2022-09-12T09:03:48.207Z,101195.19
2022-09-12T09:06:52.475Z,101201.72
2022-09-12T09:09:22.253Z,101193.44
2022-09-12T09:12:10.835Z,101196.38
2022-09-12T09:14:49.325Z,101197.28
2022-09-12T09:17:25.312Z,101200.38
2022-09-12T09:19:58.588Z,101195.75
2022-09-12T09:22:31.027Z,101197.09
2022-09-12T09:25:03.300Z,101173.72
2022-09-12T09:27:58.804Z,101180.84
2022-09-12T09:30:25.482Z,101183.00
2022-09-12T09:32:59.858Z,101182.84
2022-09-12T09:35:32.107Z,101175.63
2022-09-12T09:38:19.507Z,101164.47
2022-09-12T09:40:54.472Z,101165.03
2022-09-12T09:43:29.057Z,101145.59
2022-09-12T09:45:58.468Z,101151.31
2022-09-12T09:48:30.374Z,101155.84
2022-09-12T09:51:00.456Z,101153.53
2022-09-12T09:53:48.615Z,101150.66
2022-09-12T09:56:37.107Z,101149.59
2022-09-12T09:59:11.918Z,101142.75
2022-09-12T10:01:51.605Z,101149.47
2022-09-12T10:04:27.430Z,101136.38
2022-09-12T10:06:57.306Z,101135.78
2022-09-12T10:09:36.175Z,101132.56
2022-09-12T10:12:22.349Z,101137.25
2022-09-12T10:15:00.758Z,101133.09
2022-09-12T10:17:39.583Z,101132.84
2022-09-12T10:20:31.243Z,101128.47
2022-09-12T10:23:15.714Z,101120.69
2022-09-12T10:25:47.836Z,101119.03
2022-09-12T10:28:27.212Z,101115.75
2022-09-12T10:30:56.259Z,101119.34
2022-09-12T10:33:26.466Z,101116.03
2022-09-12T10:35:56.097Z,101100.94
2022-09-12T10:38:27.636Z,101105.41
2022-09-12T10:41:07.426Z,101103.09
2022-09-12T10:43:34.031Z,101093.94
2022-09-12T10:46:20.881Z,101092.31
2022-09-12T10:48:52.339Z,101088.31
2022-09-12T10:51:24.936Z,101084.00
2022-09-12T10:54:02.103Z,101074.25
2022-09-12T10:56:32.740Z,101076.66
2022-09-12T10:59:36.612Z,101081.59
2022-09-12T11:02:12.513Z,101076.25
2022-09-12T11:04:58.217Z,101081.81
2022-09-12T11:07:47.381Z,101077.53
2022-09-12T11:10:43.738Z,101073.72
2022-09-12T11:13:43.075Z,101070.50
2022-09-12T11:16:23.153Z,101067.59
2022-09-12T11:19:11.597Z,101072.59
2022-09-12T11:21:50.020Z,101066.81
2022-09-12T11:24:32.113Z,101057.00
2022-09-12T11:27:28.577Z,101057.84
2022-09-12T11:30:02.039Z,101043.78
2022-09-12T11:32:52.386Z,101047.72
2022-09-12T11:35:41.835Z,101046.31
2022-09-12T11:38:08.948Z,101043.84
2022-09-12T11:40:48.699Z,101041.63
2022-09-12T11:43:45.975Z,101048.53
2022-09-12T11:46:31.817Z,101043.56
2022-09-12T11:49:07.051Z,101044.13
2022-09-12T11:51:52.682Z,101036.13
2022-09-12T11:54:23.345Z,101037.53
2022-09-12T11:56:55.821Z,101036.97
2022-09-12T11:59:40.986Z,101034.59
2022-09-12T12:02:15.125Z,101034.84
2022-09-12T12:04:59.737Z,101032.75
2022-09-12T12:07:26.550Z,101036.09
2022-09-12T12:09:53.629Z,101027.44
2022-09-12T12:12:25.036Z,101032.88
2022-09-12T12:14:54.844Z,101024.91
2022-09-12T12:17:24.348Z,101034.75
2022-09-12T12:20:08.376Z,101030.25
2022-09-12T12:22:36.134Z,101028.75
2022-09-12T12:25:07.668Z,101022.19
2022-09-12T12:28:01.442Z,101022.53
2022-09-12T12:30:31.195Z,101015.03
2022-09-12T12:33:10.674Z,101014.16
2022-09-12T12:35:43.442Z,100993.34
2022-09-12T12:38:36.540Z,100996.72
2022-09-12T12:41:18.723Z,100996.88
2022-09-12T12:43:50.864Z,100984.53
2022-09-12T12:46:21.087Z,100990.53
2022-09-12T12:49:27.676Z,100992.34
2022-09-12T12:51:54.545Z,100998.22
2022-09-12T12:54:44.530Z,100995.19
2022-09-12T12:57:19.106Z,101000.53
2022-09-12T12:59:50.893Z,100989.84
2022-09-12T13:02:32.240Z,100982.94
2022-09-12T13:05:02.952Z,100976.81
2022-09-12T13:07:39.617Z,100970.28
2022-09-12T13:10:08.046Z,100977.44
2022-09-12T13:12:38.502Z,100972.31
2022-09-12T13:15:37.072Z,100978.34
2022-09-12T13:18:13.256Z,100974.50
2022-09-12T13:20:52.454Z,100963.31
2022-09-12T13:23:32.705Z,100962.28
2022-09-12T13:26:00.865Z,100953.63
2022-09-12T13:28:29.628Z,100956.13
2022-09-12T13:31:03.339Z,100944.78
2022-09-12T13:33:45.414Z,100948.66
2022-09-12T13:36:33.807Z,100942.50
2022-09-12T13:39:06.642Z,100941.25
2022-09-12T13:41:39.839Z,100950.44
2022-09-12T13:44:13.309Z,100947.69
2022-09-12T13:46:40.551Z,100937.06
2022-09-12T13:49:27.352Z,100928.44
2022-09-12T13:52:04.697Z,100928.59
2022-09-12T13:54:34.014Z,100925.84
2022-09-12T13:57:00.830Z,100923.41
2022-09-12T13:59:28.085Z,100921.66
2022-09-12T14:01:54.954Z,100918.88
2022-09-12T14:04:45.433Z,100908.88
2022-09-12T14:07:20.290Z,100900.13
2022-09-12T14:09:55.163Z,100898.53
2022-09-12T14:12:29.577Z,100883.91
2022-09-12T14:14:56.502Z,100903.84
2022-09-12T14:17:36.285Z,100893.56
2022-09-12T14:20:07.454Z,100894.53
2022-09-12T14:22:35.852Z,100890.06
2022-09-12T14:25:03.872Z,100886.22
2022-09-12T14:27:43.216Z,100887.69
2022-09-12T14:30:35.219Z,100885.28
2022-09-12T14:33:22.322Z,100893.34
2022-09-12T14:35:51.710Z,100885.94
2022-09-12T14:38:50.474Z,100869.25
2022-09-12T14:41:30.165Z,100861.09
2022-09-12T14:44:01.491Z,100859.72
2022-09-12T14:46:35.637Z,100854.50
2022-09-12T14:49:26.968Z,100852.06
2022-09-12T14:52:00.119Z,100854.50
2022-09-12T14:54:30.309Z,100848.09
2022-09-12T14:57:04.232Z,100845.22
2022-09-12T14:59:36.655Z,100847.56
2022-09-12T15:02:21.892Z,100850.34
2022-09-12T15:04:51.733Z,100831.56
2022-09-12T15:07:34.858Z,100833.16
2022-09-12T15:10:17.539Z,100833.84
2022-09-12T15:12:44.334Z,100834.59
2022-09-12T15:15:19.436Z,100835.38
2022-09-12T15:17:46.550Z,100832.78
2022-09-12T15:20:14.574Z,100843.97
2022-09-12T15:22:42.410Z,100842.84
2022-09-12T15:25:12.500Z,100837.16
2022-09-12T15:27:41.003Z,100839.94
2022-09-12T15:30:10.397Z,100839.44
2022-09-12T15:32:37.512Z,100840.59
2022-09-12T15:35:10.242Z,100833.34
2022-09-12T15:37:36.948Z,100835.09
2022-09-12T15:40:05.092Z,100852.88
2022-09-12T15:42:32.223Z,100831.47
2022-09-12T15:45:02.618Z,100833.03
2022-09-12T15:47:29.583Z,100830.56
2022-09-12T15:49:56.220Z,100826.72
2022-09-12T15:52:22.894Z,100823.78
2022-09-12T15:54:49.608Z,100828.22
2022-09-12T15:57:16.338Z,100820.00
2022-09-12T15:59:43.171Z,100820.28
2022-09-12T16:02:11.720Z,100820.22
2022-09-12T16:04:38.567Z,100816.13
2022-09-12T16:07:05.538Z,100807.31
2022-09-12T16:09:32.254Z,100808.03
2022-09-12T16:11:58.887Z,100801.13
2022-09-12T16:14:25.549Z,100797.19
2022-09-12T16:16:54.451Z,100798.00
2022-09-12T16:19:21.639Z,100788.28
2022-09-12T16:21:49.547Z,100788.75
2022-09-12T16:24:16.641Z,100792.38
2022-09-12T16:26:43.460Z,100786.69
2022-09-12T16:29:13.188Z,100787.16
2022-09-12T16:31:40.219Z,100783.03
2022-09-12T16:34:07.472Z,100774.63
2022-09-12T16:36:34.720Z,100768.69
2022-09-12T16:39:01.619Z,100763.44
2022-09-12T16:41:28.541Z,100761.34
2022-09-12T16:43:55.734Z,100764.56
2022-09-12T16:46:26.209Z,100760.06
2022-09-12T16:48:55.319Z,100756.97
2022-09-12T16:51:26.206Z,100758.31
2022-09-12T16:53:54.921Z,100750.31
2022-09-12T16:56:22.294Z,100745.84
2022-09-12T16:58:50.637Z,100727.09
2022-09-12T17:01:23.485Z,100741.06
2022-09-12T17:03:57.097Z,100743.03
2022-09-12T17:06:25.300Z,100741.09
2022-09-12T17:08:53.798Z,100751.56
2022-09-12T17:11:26.815Z,100747.31
2022-09-12T17:14:11.333Z,100748.78
2022-09-12T17:16:40.749Z,100741.38
2022-09-12T17:19:08.782Z,100730.91
2022-09-12T17:21:35.700Z,100725.19
2022-09-12T17:24:03.483Z,100728.34
2022-09-12T17:26:30.284Z,100722.22
2022-09-12T17:28:57.991Z,100725.28
2022-09-12T17:31:24.974Z,100720.88
2022-09-12T17:33:56.461Z,100733.81
2022-09-12T17:36:23.311Z,100722.09
2022-09-12T17:38:51.913Z,100721.19
2022-09-12T17:41:22.695Z,100729.00
2022-09-12T17:43:52.138Z,100728.91
2022-09-12T17:46:19.953Z,100718.06
2022-09-12T17:48:55.614Z,100721.59
2022-09-12T17:51:25.018Z,100722.41
2022-09-12T17:54:21.454Z,100712.22
2022-09-12T17:56:52.228Z,100710.44
2022-09-12T17:59:22.990Z,100720.91
2022-09-12T18:02:08.431Z,100729.38
2022-09-12T18:04:35.606Z,100730.50
2022-09-12T18:07:02.242Z,100725.66
2022-09-12T18:09:30.669Z,100712.41
2022-09-12T18:11:57.749Z,100724.44
2022-09-12T18:14:27.447Z,100716.72
2022-09-12T18:16:54.367Z,100723.88
2022-09-12T18:19:21.126Z,100710.03
2022-09-12T18:21:47.887Z,100723.78
2022-09-12T18:24:15.943Z,100714.31
2022-09-12T18:26:44.684Z,100716.72
2022-09-12T18:29:12.933Z,100715.22
2022-09-12T18:31:40.175Z,100698.72
2022-09-12T18:34:15.809Z,100707.72
2022-09-12T18:36:43.677Z,100707.53
2022-09-12T18:39:11.533Z,100705.28
2022-09-12T18:41:39.210Z,100708.66
2022-09-12T18:44:07.138Z,100698.72
2022-09-12T18:46:35.197Z,100696.03
2022-09-12T18:49:02.466Z,100695.25
2022-09-12T18:51:33.659Z,100687.88
2022-09-12T18:54:06.554Z,100697.63
2022-09-12T18:56:35.216Z,100698.97
2022-09-12T18:59:03.673Z,100705.22
2022-09-12T19:01:33.544Z,100706.50
2022-09-12T19:04:06.533Z,100699.09
2022-09-12T19:06:41.829Z,100697.22
2022-09-12T19:09:10.256Z,100697.28
2022-09-12T19:11:39.314Z,100689.00
2022-09-12T19:14:07.373Z,100688.56
2022-09-12T19:16:34.730Z,100691.09
2022-09-12T19:19:02.700Z,100679.09
2022-09-12T19:21:31.411Z,100690.31
2022-09-12T19:24:01.338Z,100686.38
2022-09-12T19:26:28.549Z,100690.59
2022-09-12T19:28:56.281Z,100698.47
2022-09-12T19:31:24.498Z,100694.34
2022-09-12T19:33:54.664Z,100690.81
2022-09-12T19:36:43.920Z,100692.06
2022-09-12T19:39:09.325Z,100675.72
2022-09-12T19:41:36.751Z,100683.81
2022-09-12T19:44:04.516Z,100685.56
2022-09-12T19:46:31.365Z,100680.38
2022-09-12T19:48:58.120Z,100668.94
2022-09-12T19:51:25.330Z,100681.41
2022-09-12T19:53:52.544Z,100684.13
2022-09-12T19:56:19.870Z,100688.88
2022-09-12T19:58:53.508Z,100679.78
2022-09-12T20:01:25.137Z,100676.28
2022-09-12T20:03:55.186Z,100670.06
2022-09-12T20:06:22.552Z,100663.84
2022-09-12T20:08:49.687Z,100665.50
2022-09-12T20:11:19.154Z,100666.94
2022-09-12T20:13:46.809Z,100667.97
2022-09-12T20:16:22.345Z,100664.66
2022-09-12T20:18:54.734Z,100660.91
2022-09-12T20:21:25.532Z,100665.28
2022-09-12T20:23:52.719Z,100650.53
2022-09-12T20:26:20.494Z,100651.78
2022-09-12T20:28:47.792Z,100639.75
2022-09-12T20:31:16.117Z,100643.50
2022-09-12T20:33:43.984Z,100641.22
2022-09-12T20:36:14.578Z,100630.22
2022-09-12T20:38:42.816Z,100630.81
2022-09-12T20:41:11.027Z,100638.53
2022-09-12T20:43:41.106Z,100636.44
2022-09-12T20:46:11.506Z,100618.19
2022-09-12T20:48:39.211Z,100610.94
2022-09-12T20:51:07.599Z,100603.72
2022-09-12T20:53:35.405Z,100596.94
2022-09-12T20:56:05.362Z,100595.06
2022-09-12T20:58:32.482Z,100607.09
2022-09-12T21:01:06.834Z,100612.53
2022-09-12T21:03:37.824Z,100600.50
2022-09-12T21:06:08.250Z,100600.53
2022-09-12T21:08:36.169Z,100600.53
2022-09-12T21:11:03.575Z,100590.59
2022-09-12T21:13:30.599Z,100594.78
2022-09-12T21:16:10.966Z,100597.25
2022-09-12T21:18:38.587Z,100593.94
2022-09-12T21:21:06.369Z,100582.53
2022-09-12T21:23:34.797Z,100592.69
2022-09-12T21:26:02.748Z,100578.44
2022-09-12T21:28:30.173Z,100583.19
2022-09-12T21:30:57.424Z,100579.22
2022-09-12T21:33:24.361Z,100581.50
2022-09-12T21:35:51.290Z,100592.28
2022-09-12T21:38:19.297Z,100609.66
2022-09-12T21:40:46.880Z,100604.50
2022-09-12T21:43:14.156Z,100602.03
2022-09-12T21:45:41.018Z,100612.38
2022-09-12T21:48:07.742Z,100596.22
2022-09-12T21:50:34.678Z,100593.91
2022-09-12T21:53:02.410Z,100583.97
2022-09-12T21:55:29.450Z,100580.25
2022-09-12T21:57:56.625Z,100583.56
2022-09-12T22:00:23.563Z,100579.63
2022-09-12T22:02:50.287Z,100590.19
2022-09-12T22:05:17.444Z,100588.31
2022-09-12T22:07:44.664Z,100586.50
2022-09-12T22:10:11.465Z,100585.03
2022-09-12T22:12:40.708Z,100577.38
2022-09-12T22:15:36.268Z,100587.91
2022-09-12T22:17:57.430Z,100589.56
2022-09-12T22:20:24.310Z,100583.97
2022-09-12T22:23:09.595Z,100576.50
2022-09-12T22:25:36.611Z,100578.78
2022-09-12T22:28:03.496Z,100572.41
2022-09-12T22:30:30.279Z,100571.56
2022-09-12T22:32:57.210Z,100579.44
2022-09-12T22:35:23.982Z,100582.13
2022-09-12T22:37:50.578Z,100578.59
2022-09-12T22:40:17.559Z,100580.69
2022-09-12T22:42:44.240Z,100580.50
2022-09-12T22:45:11.498Z,100579.44
2022-09-12T22:47:38.417Z,100569.31
2022-09-12T22:50:05.586Z,100559.16
2022-09-12T22:52:32.325Z,100563.72
2022-09-12T22:54:59.255Z,100561.66
2022-09-12T22:57:25.934Z,100573.66
2022-09-12T22:59:52.548Z,100567.63
2022-09-12T23:02:19.188Z,100571.59
2022-09-12T23:04:46.827Z,100566.63
2022-09-12T23:07:13.515Z,100565.38
2022-09-12T23:09:40.192Z,100563.69
2022-09-12T23:12:07.050Z,100566.22
2022-09-12T23:14:34.263Z,100553.97
2022-09-12T23:17:01.138Z,100563.09
2022-09-12T23:19:27.911Z,100569.94
2022-09-12T23:21:54.578Z,100569.50
2022-09-12T23:24:21.484Z,100569.28
2022-09-12T23:26:48.276Z,100570.75
2022-09-12T23:29:15.393Z,100578.19
2022-09-12T23:31:42.201Z,100569.09
2022-09-12T23:34:10.216Z,100566.81
2022-09-12T23:36:37.054Z,100569.50
2022-09-12T23:39:04.020Z,100568.66
2022-09-12T23:41:31.211Z,100567.44
2022-09-12T23:43:57.958Z,100564.97
2022-09-12T23:46:24.620Z,100562.28
2022-09-12T23:48:53.266Z,100561.66
2022-09-12T23:51:21.893Z,100556.66
2022-09-12T23:53:50.165Z,100551.69
2022-09-12T23:56:17.030Z,100549.22
2022-09-12T23:58:43.854Z,100553.16
